Time;durP1;ratioP1;P1;durP2;ratioP2;P2;SDS_P1;SDS_P2;PMS_P1;PMS_P2;Temp;Humidity;BMP_temperature;BMP_pressure;BME280_temperature;BME280_humidity;BME280_pressure;Samples;Min_cycle;Max_cycle;Signal;HPM_P1;HPM_P2
2022/08/20 00:01:39;;;;;;;1.58;1.45;;;18.80;99.90;;;;;;5032737;28;20180;-60
2022/08/20 00:04:05;;;;;;;1.60;1.35;;;18.80;99.90;;;;;;5035467;28;20290;-60
2022/08/20 00:06:32;;;;;;;1.52;1.20;;;18.90;99.90;;;;;;5036497;28;20211;-60
2022/08/20 00:08:58;;;;;;;2.03;1.50;;;18.80;99.90;;;;;;5036479;28;20549;-60
2022/08/20 00:11:26;;;;;;;1.75;1.55;;;18.90;99.90;;;;;;5036390;28;20183;-60
2022/08/20 00:13:55;;;;;;;1.40;1.08;;;18.80;99.90;;;;;;5036265;28;20255;-60
2022/08/20 00:16:23;;;;;;;1.27;0.98;;;18.80;99.90;;;;;;5036487;28;20172;-59
2022/08/20 00:18:50;;;;;;;1.05;0.93;;;18.80;99.90;;;;;;5036407;28;20172;-60
2022/08/20 00:21:18;;;;;;;1.33;0.98;;;18.80;99.90;;;;;;5036373;28;20553;-60
2022/08/20 00:23:47;;;;;;;2.83;1.45;;;18.70;99.90;;;;;;5034881;28;20203;-60
2022/08/20 00:26:13;;;;;;;0.95;0.70;;;18.70;99.90;;;;;;5036099;28;20198;-60
2022/08/20 00:28:40;;;;;;;0.85;0.85;;;18.70;99.90;;;;;;5036034;28;20625;-60
2022/08/20 00:31:08;;;;;;;1.10;0.90;;;18.70;99.90;;;;;;5036266;28;20187;-60
2022/08/20 00:33:35;;;;;;;0.70;0.70;;;18.60;99.90;;;;;;5036099;28;20655;-60
2022/08/20 00:36:05;;;;;;;1.75;0.77;;;18.60;99.90;;;;;;5035982;28;20172;-60
2022/08/20 00:38:33;;;;;;;1.48;0.88;;;18.60;99.90;;;;;;5036018;28;20266;-60
2022/08/20 00:40:59;;;;;;;1.13;1.02;;;18.50;99.90;;;;;;5035820;28;20222;-60
2022/08/20 00:43:44;;;;;;;1.00;0.95;;;18.40;99.90;;;;;;5035653;28;20210;-59
2022/08/20 00:46:24;;;;;;;1.10;1.00;;;18.30;99.90;;;;;;5035788;28;20531;-59
2022/08/20 00:48:52;;;;;;;1.02;0.90;;;18.30;99.90;;;;;;5035702;28;20176;-60
2022/08/20 00:51:26;;;;;;;1.70;1.10;;;18.10;99.90;;;;;;5035666;28;20254;-60
2022/08/20 00:54:00;;;;;;;1.08;0.98;;;18.10;99.90;;;;;;5035680;28;20203;-60
2022/08/20 00:56:26;;;;;;;2.00;1.40;;;18.00;99.90;;;;;;5035848;28;20544;-60
2022/08/20 00:58:53;;;;;;;2.33;1.27;;;18.10;99.90;;;;;;5035484;28;20175;-60
2022/08/20 01:01:21;;;;;;;0.80;0.80;;;18.00;99.90;;;;;;5035603;28;20206;-60
2022/08/20 01:03:47;;;;;;;1.50;1.00;;;18.10;99.90;;;;;;5035398;28;20192;-60
2022/08/20 01:06:13;;;;;;;0.98;0.93;;;18.00;99.90;;;;;;5035632;28;20176;-60
2022/08/20 01:08:41;;;;;;;1.45;1.10;;;17.90;99.90;;;;;;5034254;28;20176;-60
2022/08/20 01:11:20;;;;;;;1.05;1.00;;;17.90;99.90;;;;;;5035258;28;20633;-60
2022/08/20 01:13:47;;;;;;;1.50;1.08;;;17.70;99.90;;;;;;5035205;28;20188;-60
2022/08/20 01:16:22;;;;;;;1.40;1.30;;;17.60;99.90;;;;;;5035179;28;20191;-60
2022/08/20 01:18:50;;;;;;;2.55;1.60;;;17.60;99.90;;;;;;5033891;28;20223;-60
2022/08/20 01:21:21;;;;;;;1.73;1.10;;;17.60;99.90;;;;;;5035599;28;20238;-60
2022/08/20 01:23:58;;;;;;;1.70;1.58;;;17.50;99.90;;;;;;5035086;28;20203;-60
2022/08/20 01:26:33;;;;;;;1.73;1.08;;;17.50;99.90;;;;;;5035277;28;20171;-60
2022/08/20 01:29:11;;;;;;;2.05;1.52;;;17.60;99.90;;;;;;5035094;28;20184;-60
2022/08/20 01:31:40;;;;;;;1.83;1.45;;;17.50;99.90;;;;;;5035121;28;20168;-60
2022/08/20 01:34:09;;;;;;;1.10;1.00;;;17.50;99.90;;;;;;5035133;28;20172;-60
2022/08/20 01:36:38;;;;;;;2.25;1.23;;;17.40;99.90;;;;;;5034913;28;20564;-60
2022/08/20 01:39:07;;;;;;;1.65;1.55;;;17.40;99.90;;;;;;5034809;28;20568;-60
2022/08/20 01:41:54;;;;;;;1.05;0.98;;;17.40;99.90;;;;;;5034591;28;20184;-60
2022/08/20 01:44:21;;;;;;;1.30;1.13;;;17.20;99.90;;;;;;5034739;28;20211;-60
2022/08/20 01:46:49;;;;;;;1.95;1.42;;;17.30;99.90;;;;;;5034679;28;20207;-60
2022/08/20 01:49:18;;;;;;;1.67;1.40;;;17.20;99.90;;;;;;5034694;28;20557;-60
2022/08/20 01:51:44;;;;;;;0.95;0.80;;;17.20;99.90;;;;;;5034613;28;20180;-60
2022/08/20 01:54:10;;;;;;;1.30;1.20;;;17.20;99.90;;;;;;5034356;28;20219;-60
2022/08/20 01:56:51;;;;;;;1.20;0.93;;;17.10;99.90;;;;;;5034638;28;20637;-60
2022/08/20 01:59:17;;;;;;;1.17;0.82;;;17.10;99.90;;;;;;5034326;28;20222;-60
2022/08/20 02:01:42;;;;;;;1.55;1.35;;;17.10;99.90;;;;;;5034430;28;20204;-60
2022/08/20 02:04:09;;;;;;;1.20;1.10;;;17.10;99.90;;;;;;5034421;28;20191;-59
2022/08/20 02:06:39;;;;;;;1.38;1.10;;;17.00;99.90;;;;;;5034187;28;20203;-60
2022/08/20 02:09:07;;;;;;;1.02;0.93;;;17.10;99.90;;;;;;5034381;28;20243;-60
2022/08/20 02:11:34;;;;;;;1.13;0.82;;;17.00;99.90;;;;;;5034230;28;20230;-60
2022/08/20 02:14:01;;;;;;;1.13;0.95;;;17.10;99.90;;;;;;5034179;28;20188;-60
2022/08/20 02:16:35;;;;;;;0.75;0.75;;;17.00;99.90;;;;;;5034140;28;20176;-60
2022/08/20 02:19:08;;;;;;;1.42;0.80;;;17.10;99.90;;;;;;5034018;28;20184;-60
2022/08/20 02:21:36;;;;;;;1.08;0.80;;;16.90;99.90;;;;;;5034179;28;20178;-60
2022/08/20 02:24:03;;;;;;;1.20;1.10;;;17.00;99.90;;;;;;5034073;28;20192;-60
2022/08/20 02:26:29;;;;;;;1.15;0.77;;;16.90;99.90;;;;;;5032402;28;20195;-60
2022/08/20 02:28:55;;;;;;;1.40;1.00;;;16.90;99.90;;;;;;5034119;28;20195;-60
2022/08/20 02:31:22;;;;;;;2.40;1.13;;;17.00;99.90;;;;;;5033757;28;20539;-60
2022/08/20 02:33:48;;;;;;;1.70;1.35;;;17.00;99.90;;;;;;5033691;28;20186;-60
2022/08/20 02:36:17;;;;;;;1.60;1.20;;;17.00;99.90;;;;;;5033831;28;20656;-60
2022/08/20 02:38:44;;;;;;;2.35;1.02;;;16.90;99.90;;;;;;5033654;28;20168;-60
2022/08/20 02:41:11;;;;;;;1.30;0.80;;;16.90;99.90;;;;;;5032452;28;20230;-59
2022/08/20 02:43:37;;;;;;;0.90;0.90;;;16.90;99.90;;;;;;5033506;28;20210;-60
2022/08/20 02:46:04;;;;;;;1.05;0.93;;;16.90;99.90;;;;;;5032623;28;20187;-60
2022/08/20 02:48:32;;;;;;;1.50;1.33;;;17.00;99.90;;;;;;5033537;28;20175;-61
2022/08/20 02:51:03;;;;;;;1.40;1.30;;;16.90;99.90;;;;;;5033809;28;20183;-60
2022/08/20 02:53:32;;;;;;;1.80;1.20;;;16.90;99.90;;;;;;5033820;28;20573;-60
2022/08/20 02:55:59;;;;;;;0.80;0.80;;;16.80;99.90;;;;;;5033682;28;20182;-60
2022/08/20 02:58:25;;;;;;;0.95;0.77;;;16.70;99.90;;;;;;5033355;28;20643;-60
2022/08/20 03:00:51;;;;;;;0.82;0.82;;;16.70;99.90;;;;;;5033328;28;20541;-60
2022/08/20 03:03:21;;;;;;;1.17;0.80;;;16.70;99.90;;;;;;5033336;28;20172;-60
2022/08/20 03:05:52;;;;;;;1.17;0.90;;;16.70;99.90;;;;;;5033396;28;20187;-60
2022/08/20 03:08:18;;;;;;;1.95;1.00;;;16.80;99.90;;;;;;5033403;28;20168;-60
2022/08/20 03:10:45;;;;;;;1.60;1.15;;;16.70;99.90;;;;;;5033295;28;20176;-60
2022/08/20 03:13:13;;;;;;;1.20;0.95;;;16.70;99.90;;;;;;5033192;28;20164;-60
2022/08/20 03:15:45;;;;;;;1.42;0.90;;;16.70;99.90;;;;;;5032175;28;20180;-60
2022/08/20 03:18:12;;;;;;;1.83;1.15;;;16.60;99.90;;;;;;5033453;28;20176;-60
2022/08/20 03:20:38;;;;;;;1.38;1.27;;;16.60;99.90;;;;;;5033319;28;20246;-60
2022/08/20 03:23:04;;;;;;;1.10;1.00;;;16.70;99.90;;;;;;5033426;28;20183;-60
2022/08/20 03:25:30;;;;;;;1.45;1.05;;;16.70;99.90;;;;;;5031914;28;20222;-60
2022/08/20 03:27:56;;;;;;;1.33;1.10;;;16.70;99.90;;;;;;5031641;28;20559;-60
2022/08/20 03:30:23;;;;;;;1.52;1.08;;;16.60;99.90;;;;;;5032123;28;20200;-60
2022/08/20 03:32:49;;;;;;;1.10;0.80;;;16.50;99.90;;;;;;5033177;28;20172;-60
2022/08/20 03:35:18;;;;;;;1.17;1.08;;;16.40;99.90;;;;;;5033245;28;20234;-60
2022/08/20 03:37:44;;;;;;;1.40;1.10;;;16.40;99.90;;;;;;5033568;28;20196;-62
2022/08/20 03:40:15;;;;;;;1.20;1.10;;;16.30;99.90;;;;;;5036917;28;20266;-60
2022/08/20 03:42:42;;;;;;;0.77;0.77;;;16.40;99.90;;;;;;5037237;28;20198;-61
2022/08/20 03:45:09;;;;;;;1.30;1.20;;;16.40;99.90;;;;;;5037014;28;20579;-61
2022/08/20 03:47:35;;;;;;;1.42;1.33;;;16.30;99.90;;;;;;5036921;28;20195;-60
2022/08/20 03:50:02;;;;;;;1.40;1.15;;;16.40;99.90;;;;;;5036841;28;20168;-60
2022/08/20 03:52:28;;;;;;;0.98;0.90;;;16.30;99.90;;;;;;5037205;28;20175;-62
2022/08/20 03:54:55;;;;;;;2.25;1.17;;;16.30;99.90;;;;;;5035364;28;20703;-60
2022/08/20 03:57:21;;;;;;;1.10;0.90;;;16.20;99.90;;;;;;5037114;28;20179;-60
2022/08/20 03:59:47;;;;;;;1.45;1.08;;;16.30;99.90;;;;;;5036994;28;20180;-60
2022/08/20 04:02:12;;;;;;;0.90;0.80;;;16.20;99.90;;;;;;5036940;28;20180;-60
2022/08/20 04:04:39;;;;;;;1.50;1.10;;;16.10;99.90;;;;;;5036382;28;20200;-60
2022/08/20 04:07:13;;;;;;;1.27;1.17;;;16.10;99.90;;;;;;5036645;28;20550;-61
2022/08/20 04:09:39;;;;;;;1.17;1.00;;;16.00;99.90;;;;;;5036466;28;20540;-60
2022/08/20 04:12:06;;;;;;;1.20;1.10;;;16.00;99.90;;;;;;5035601;28;20184;-60
2022/08/20 04:14:34;;;;;;;1.55;1.42;;;16.10;99.90;;;;;;5036425;28;20188;-60
2022/08/20 04:17:05;;;;;;;1.52;1.05;;;16.00;99.90;;;;;;5036415;28;20272;-60
2022/08/20 04:19:30;;;;;;;1.20;1.10;;;16.00;99.90;;;;;;5036274;28;20624;-60
2022/08/20 04:21:56;;;;;;;1.02;0.82;;;16.10;99.90;;;;;;5035066;28;20229;-61
2022/08/20 04:24:22;;;;;;;1.40;0.90;;;16.10;99.90;;;;;;5036329;28;20203;-60
2022/08/20 04:26:47;;;;;;;2.75;1.23;;;16.00;99.90;;;;;;5036293;28;20242;-60
2022/08/20 04:29:13;;;;;;;1.23;1.13;;;16.00;99.90;;;;;;5035950;28;20250;-60
2022/08/20 04:31:38;;;;;;;1.20;1.10;;;16.00;99.90;;;;;;5034830;28;20182;-60
2022/08/20 04:34:07;;;;;;;0.88;0.88;;;16.00;99.90;;;;;;5036141;28;20182;-62
2022/08/20 04:36:34;;;;;;;1.25;1.15;;;16.00;99.90;;;;;;5035924;28;20171;-58
2022/08/20 04:39:00;;;;;;;1.73;1.20;;;15.90;99.90;;;;;;5034628;28;20172;-60
2022/08/20 04:41:25;;;;;;;0.90;0.82;;;15.80;99.90;;;;;;5018699;28;20234;-60
2022/08/20 04:43:52;;;;;;;1.52;1.35;;;15.90;99.90;;;;;;5035908;28;20199;-60
2022/08/20 04:46:19;;;;;;;1.80;1.30;;;15.90;99.90;;;;;;5035773;28;20207;-60
2022/08/20 04:48:45;;;;;;;1.30;1.20;;;15.90;99.90;;;;;;5035305;28;20208;-62
2022/08/20 04:51:13;;;;;;;1.27;1.10;;;15.80;99.90;;;;;;5035614;28;20197;-60
2022/08/20 04:53:40;;;;;;;1.50;1.35;;;15.80;99.90;;;;;;5035767;28;20271;-60
2022/08/20 04:56:06;;;;;;;1.45;1.30;;;15.80;99.90;;;;;;5035767;28;20267;-62
2022/08/20 04:58:34;;;;;;;1.38;1.15;;;15.70;99.90;;;;;;5034427;28;20206;-63
2022/08/20 05:01:04;;;;;;;2.08;1.58;;;15.70;99.90;;;;;;5035471;28;20637;-59
2022/08/20 05:03:30;;;;;;;1.50;1.23;;;15.80;99.90;;;;;;5035463;28;20179;-60
2022/08/20 05:05:56;;;;;;;1.88;1.10;;;15.80;99.90;;;;;;5035395;28;20183;-57
2022/08/20 05:08:24;;;;;;;1.27;1.10;;;15.80;99.90;;;;;;5035305;28;20204;-58
2022/08/20 05:10:51;;;;;;;1.60;1.30;;;15.80;99.90;;;;;;5035308;28;20176;-57
2022/08/20 05:13:17;;;;;;;1.88;1.08;;;15.80;99.90;;;;;;5034439;28;20175;-58
2022/08/20 05:15:44;;;;;;;0.80;0.80;;;15.80;99.90;;;;;;5035379;28;20255;-58
2022/08/20 05:18:11;;;;;;;1.33;1.10;;;15.80;99.90;;;;;;5035147;28;20175;-57
2022/08/20 05:20:39;;;;;;;1.08;0.98;;;15.90;99.90;;;;;;5035362;28;20168;-58
2022/08/20 05:23:07;;;;;;;1.55;1.17;;;15.90;99.90;;;;;;5035272;28;20172;-58
2022/08/20 05:25:34;;;;;;;2.88;1.20;;;15.90;99.90;;;;;;5034918;28;20206;-58
2022/08/20 05:28:08;;;;;;;1.30;1.20;;;15.90;99.90;;;;;;5033236;28;20192;-61
2022/08/20 05:30:35;;;;;;;2.05;1.15;;;15.90;99.90;;;;;;5034643;28;20529;-61
2022/08/20 05:33:05;;;;;;;1.70;1.30;;;16.00;99.90;;;;;;5034758;28;20265;-61
2022/08/20 05:35:34;;;;;;;2.67;1.35;;;16.00;99.90;;;;;;5034961;28;20167;-63
2022/08/20 05:38:00;;;;;;;1.45;1.30;;;16.00;99.90;;;;;;5034839;28;20317;-63
2022/08/20 05:40:27;;;;;;;1.30;1.13;;;16.10;99.90;;;;;;5034789;28;20263;-63
2022/08/20 05:42:53;;;;;;;1.55;1.25;;;16.20;99.90;;;;;;5034595;28;20736;-63
2022/08/20 05:45:20;;;;;;;2.03;1.52;;;16.20;99.90;;;;;;5049896;28;20561;-64
2022/08/20 05:47:47;;;;;;;1.30;1.20;;;16.20;99.90;;;;;;5034660;28;20179;-64
2022/08/20 05:50:14;;;;;;;2.28;1.77;;;16.30;99.90;;;;;;5034587;28;20262;-61
2022/08/20 05:52:40;;;;;;;1.77;1.30;;;16.30;99.90;;;;;;5034531;28;20626;-62
2022/08/20 05:55:08;;;;;;;1.70;1.27;;;16.40;99.90;;;;;;5034399;28;20190;-62
2022/08/20 05:57:35;;;;;;;2.13;1.73;;;16.50;99.90;;;;;;5034253;28;20222;-62
2022/08/20 06:00:04;;;;;;;2.42;1.67;;;16.60;99.90;;;;;;5033822;28;20176;-62
2022/08/20 06:05:14;;;;;;;1.92;1.73;;;16.80;99.90;;;;;;5030134;28;20321;-61
2022/08/20 06:07:40;;;;;;;1.95;1.45;;;16.70;99.90;;;;;;5012956;28;20701;-62
2022/08/20 06:10:07;;;;;;;2.78;1.80;;;17.00;99.90;;;;;;5012663;28;20183;-61
2022/08/20 06:12:33;;;;;;;1.92;1.67;;;17.20;99.90;;;;;;5014070;28;20287;-62
2022/08/20 06:14:59;;;;;;;3.20;2.05;;;17.10;99.90;;;;;;5014171;28;20662;-62
2022/08/20 06:17:26;;;;;;;1.65;1.50;;;17.20;99.90;;;;;;5013163;28;20187;-61
2022/08/20 06:19:51;;;;;;;2.80;1.77;;;17.20;99.90;;;;;;5014039;28;20212;-62
2022/08/20 06:22:17;;;;;;;2.08;1.60;;;17.30;99.90;;;;;;5014103;28;20184;-62
2022/08/20 06:24:43;;;;;;;2.72;2.17;;;17.40;99.90;;;;;;5012706;28;20196;-62
2022/08/20 06:27:13;;;;;;;3.60;1.50;;;17.50;99.90;;;;;;5014114;28;20185;-62
2022/08/20 06:29:39;;;;;;;2.22;1.83;;;17.50;99.90;;;;;;5012545;28;20234;-61
2022/08/20 06:32:05;;;;;;;2.05;1.55;;;17.90;99.90;;;;;;5012803;28;20208;-61
2022/08/20 06:34:30;;;;;;;1.25;1.10;;;17.90;99.90;;;;;;5013789;28;20554;-61
2022/08/20 06:36:58;;;;;;;2.38;1.15;;;18.10;99.90;;;;;;5035740;28;20261;-62
2022/08/20 06:39:24;;;;;;;3.05;2.15;;;18.30;99.90;;;;;;5052921;28;20206;-62
2022/08/20 06:41:50;;;;;;;2.83;2.00;;;18.50;99.90;;;;;;5052916;28;20171;-62
2022/08/20 06:44:17;;;;;;;2.75;1.70;;;18.40;99.90;;;;;;5053490;28;20203;-62
2022/08/20 06:46:44;;;;;;;2.50;1.90;;;18.50;99.90;;;;;;5053560;28;20187;-62
2022/08/20 06:49:10;;;;;;;2.83;2.25;;;18.40;99.90;;;;;;5053314;28;20682;-62
2022/08/20 06:51:38;;;;;;;3.03;1.98;;;18.60;99.90;;;;;;5051937;28;20168;-62
2022/08/20 06:54:04;;;;;;;2.45;1.92;;;18.70;99.90;;;;;;5051616;28;20536;-62
2022/08/20 06:56:32;;;;;;;4.03;2.08;;;18.80;99.90;;;;;;5053135;28;20651;-62
2022/08/20 06:58:58;;;;;;;3.58;1.85;;;19.00;99.90;;;;;;5053398;28;20191;-62
2022/08/20 07:01:24;;;;;;;2.28;1.65;;;18.90;99.90;;;;;;5052879;28;20198;-61
2022/08/20 07:03:50;;;;;;;2.50;1.75;;;19.00;99.90;;;;;;5052985;28;20201;-61
2022/08/20 07:06:17;;;;;;;2.30;1.73;;;19.20;99.90;;;;;;5051803;28;20258;-62
2022/08/20 07:08:43;;;;;;;2.03;1.65;;;19.20;99.90;;;;;;5052926;28;20167;-62
2022/08/20 07:11:09;;;;;;;3.95;2.17;;;19.10;99.90;;;;;;5053313;28;20182;-61
2022/08/20 07:13:36;;;;;;;2.38;1.95;;;19.30;99.90;;;;;;5052693;28;20179;-62
2022/08/20 07:16:06;;;;;;;2.83;1.92;;;19.30;99.90;;;;;;5053162;28;20168;-62
2022/08/20 07:18:32;;;;;;;2.33;2.00;;;19.40;99.90;;;;;;5052160;28;20171;-61
2022/08/20 07:20:57;;;;;;;3.53;1.73;;;19.50;99.90;;;;;;5051882;28;20244;-62
2022/08/20 07:23:25;;;;;;;2.35;1.83;;;19.60;99.90;;;;;;5052910;28;20175;-61
2022/08/20 07:25:51;;;;;;;2.92;1.70;;;19.80;99.90;;;;;;5053417;28;20190;-62
2022/08/20 07:28:22;;;;;;;2.58;1.90;;;19.90;99.90;;;;;;5052959;28;20185;-61
2022/08/20 07:33:36;;;;;;;2.70;2.08;;;20.10;99.90;;;;;;5052807;28;20206;-62
2022/08/20 07:36:03;;;;;;;2.20;1.83;;;20.20;99.90;;;;;;5053174;28;20175;-62
2022/08/20 07:38:30;;;;;;;2.63;2.00;;;20.30;99.90;;;;;;5052927;28;20179;-61
2022/08/20 07:41:11;;;;;;;2.00;1.80;;;20.70;99.90;;;;;;5053000;28;20625;-61
2022/08/20 07:43:38;;;;;;;2.17;1.98;;;20.80;99.90;;;;;;5052975;28;20221;-61
2022/08/20 07:46:08;;;;;;;2.67;2.08;;;20.90;99.90;;;;;;5051575;28;20566;-61
2022/08/20 07:48:38;;;;;;;1.70;1.60;;;20.90;99.90;;;;;;5052776;28;20232;-61
2022/08/20 07:51:05;;;;;;;2.67;1.80;;;21.10;99.90;;;;;;5052782;28;20172;-61
2022/08/20 07:53:33;;;;;;;4.35;1.83;;;21.20;99.90;;;;;;5052873;28;20167;-61
2022/08/20 07:56:01;;;;;;;3.15;1.80;;;21.20;99.90;;;;;;5052794;28;20533;-62
2022/08/20 07:58:27;;;;;;;3.67;1.77;;;21.40;99.90;;;;;;5052692;28;20609;-61
2022/08/20 08:00:52;;;;;;;2.40;1.73;;;21.50;99.90;;;;;;5051218;28;20186;-61
2022/08/20 08:03:18;;;;;;;1.85;1.58;;;21.50;99.90;;;;;;5051677;28;20174;-61
2022/08/20 08:05:47;;;;;;;2.55;1.83;;;21.60;99.90;;;;;;5050749;28;20230;-61
2022/08/20 08:08:19;;;;;;;4.90;1.90;;;21.70;99.90;;;;;;5051992;28;20171;-61
2022/08/20 08:10:48;;;;;;;2.40;1.50;;;21.70;99.90;;;;;;5050843;28;20225;-61
2022/08/20 08:13:14;;;;;;;1.85;1.65;;;21.80;99.90;;;;;;5052446;28;20176;-61
2022/08/20 08:15:44;;;;;;;2.63;1.70;;;21.90;99.90;;;;;;5052550;28;20576;-62
2022/08/20 08:18:15;;;;;;;2.53;1.50;;;21.90;99.90;;;;;;5053081;28;20203;-62
2022/08/20 08:20:43;;;;;;;2.63;1.92;;;21.90;99.90;;;;;;5051960;28;20690;-61
2022/08/20 08:23:13;;;;;;;1.48;1.15;;;22.00;99.90;;;;;;5052293;28;20184;-61
2022/08/20 08:25:44;;;;;;;3.22;1.90;;;22.10;99.90;;;;;;5055611;28;20211;-62
2022/08/20 08:28:10;;;;;;;2.15;1.58;;;22.10;99.90;;;;;;5056134;28;20226;-61
2022/08/20 08:30:38;;;;;;;1.65;1.40;;;22.10;99.90;;;;;;5056441;28;20221;-61
2022/08/20 08:35:49;;;;;;;1.85;1.60;;;21.90;99.90;;;;;;5056237;28;20689;-62
2022/08/20 08:38:16;;;;;;;1.27;1.00;;;22.00;99.90;;;;;;5055846;28;20187;-62
2022/08/20 08:40:42;;;;;;;1.52;1.10;;;22.20;99.90;;;;;;5056012;28;20187;-62
2022/08/20 08:43:12;;;;;;;1.85;1.30;;;22.30;99.90;;;;;;5054838;28;20277;-62
2022/08/20 08:45:44;;;;;;;2.35;1.15;;;22.40;99.90;;;;;;5056034;28;20195;-62
2022/08/20 08:48:16;;;;;;;1.02;0.93;;;22.40;99.90;;;;;;5055830;28;20187;-62
2022/08/20 08:50:45;;;;;;;1.58;0.98;;;22.20;99.90;;;;;;5055527;28;20174;-61
2022/08/20 08:53:25;;;;;;;1.67;1.20;;;22.30;99.90;;;;;;5055765;28;20167;-61
2022/08/20 08:55:50;;;;;;;2.22;1.10;;;22.30;99.90;;;;;;5055820;28;20643;-57
2022/08/20 08:58:16;;;;;;;1.00;0.90;;;22.50;99.90;;;;;;5055417;28;20176;-61
2022/08/20 09:00:43;;;;;;;0.88;0.80;;;22.50;99.90;;;;;;5055406;28;20735;-61
2022/08/20 09:03:30;;;;;;;1.00;0.73;;;22.70;99.90;;;;;;5054055;28;20229;-62
2022/08/20 09:06:00;;;;;;;1.88;0.85;;;22.70;99.90;;;;;;5040766;28;20200;-61
2022/08/20 09:08:34;;;;;;;0.80;0.80;;;22.90;99.90;;;;;;5035427;28;20164;-61
2022/08/20 09:11:07;;;;;;;1.77;0.93;;;23.10;99.90;;;;;;5029797;28;20178;-62
2022/08/20 09:13:33;;;;;;;1.95;0.98;;;23.40;99.90;;;;;;5016299;28;20177;-61
2022/08/20 09:15:59;;;;;;;0.80;0.70;;;23.40;99.90;;;;;;5015513;28;20164;-62
2022/08/20 09:18:25;;;;;;;1.42;0.85;;;23.00;99.90;;;;;;5015487;28;20269;-62
2022/08/20 09:20:51;;;;;;;1.92;0.60;;;22.70;99.90;;;;;;5015409;28;20212;-62
2022/08/20 09:23:16;;;;;;;1.17;0.80;;;22.30;99.90;;;;;;5015399;28;20172;-60
2022/08/20 09:25:42;;;;;;;1.92;0.70;;;21.90;99.90;;;;;;5015174;28;20208;-61
2022/08/20 09:28:08;;;;;;;0.77;0.70;;;21.80;99.90;;;;;;5015005;28;20535;-61
2022/08/20 09:30:34;;;;;;;0.65;0.60;;;22.10;99.90;;;;;;5014345;28;20279;-62
2022/08/20 09:33:00;;;;;;;0.73;0.70;;;22.40;99.90;;;;;;5015096;28;20169;-64
2022/08/20 09:35:26;;;;;;;1.83;0.75;;;22.80;99.90;;;;;;5015131;28;20223;-62
2022/08/20 09:37:52;;;;;;;1.95;0.85;;;23.10;99.90;;;;;;5015167;28;20574;-61
2022/08/20 09:40:18;;;;;;;1.52;0.60;;;23.30;99.90;;;;;;5014920;28;20177;-61
2022/08/20 09:42:45;;;;;;;1.58;0.73;;;23.00;99.90;;;;;;5014797;28;20180;-61
2022/08/20 09:45:12;;;;;;;0.88;0.57;;;22.50;99.90;;;;;;5015011;28;20197;-61
2022/08/20 09:47:38;;;;;;;0.93;0.70;;;22.20;99.90;;;;;;5014880;28;20753;-62
2022/08/20 09:50:05;;;;;;;0.98;0.60;;;22.50;99.90;;;;;;5013747;28;20173;-58
2022/08/20 09:52:34;;;;;;;0.70;0.68;;;22.80;99.90;;;;;;5014858;28;20215;-57
2022/08/20 09:55:03;;;;;;;1.05;1.00;;;22.80;99.90;;;;;;5013505;28;20625;-57
2022/08/20 09:57:29;;;;;;;0.50;0.47;;;22.30;99.90;;;;;;5014518;28;20184;-57
2022/08/20 10:00:00;;;;;;;1.13;0.50;;;22.50;99.90;;;;;;5014913;28;20499;-57
2022/08/20 10:02:26;;;;;;;0.55;0.55;;;23.10;99.90;;;;;;5014798;28;20188;-57
2022/08/20 10:04:52;;;;;;;2.05;0.70;;;23.40;99.90;;;;;;5014596;28;20197;-57
2022/08/20 10:07:18;;;;;;;1.65;0.77;;;23.60;99.90;;;;;;5014330;28;20183;-57
2022/08/20 10:09:43;;;;;;;0.50;0.50;;;23.60;99.90;;;;;;5014435;28;20627;-57
2022/08/20 10:12:09;;;;;;;1.05;0.77;;;23.50;99.90;;;;;;5013248;28;20190;-57
2022/08/20 10:14:35;;;;;;;0.85;0.75;;;23.20;99.90;;;;;;5014585;28;20181;-57
2022/08/20 10:17:02;;;;;;;1.02;0.70;;;23.20;99.90;;;;;;5014495;28;20175;-58
2022/08/20 10:19:29;;;;;;;0.93;0.52;;;23.20;99.90;;;;;;5014348;28;20247;-58
2022/08/20 10:21:55;;;;;;;0.98;0.60;;;22.90;99.90;;;;;;5014289;28;20173;-57
2022/08/20 10:24:21;;;;;;;0.98;0.63;;;22.60;99.90;;;;;;5013980;28;20196;-57
2022/08/20 10:26:48;;;;;;;0.40;0.40;;;22.80;99.90;;;;;;5014322;28;20188;-57
2022/08/20 10:29:14;;;;;;;0.70;0.63;;;23.00;99.90;;;;;;5014183;28;20188;-57
2022/08/20 10:31:41;;;;;;;1.20;0.50;;;23.20;99.90;;;;;;5012944;28;20196;-57
2022/08/20 10:34:07;;;;;;;1.23;0.57;;;23.40;99.90;;;;;;5013995;28;20686;-57
2022/08/20 10:36:33;;;;;;;0.73;0.47;;;23.80;99.90;;;;;;5014021;28;20321;-57
2022/08/20 10:38:59;;;;;;;0.82;0.50;;;24.10;99.90;;;;;;5014263;28;20192;-57
2022/08/20 10:41:26;;;;;;;0.95;0.60;;;24.30;99.90;;;;;;5012478;28;20641;-57
2022/08/20 10:43:51;;;;;;;0.80;0.65;;;24.30;99.90;;;;;;5013714;28;20223;-58
2022/08/20 10:46:17;;;;;;;2.13;0.65;;;24.30;99.90;;;;;;5013660;28;20172;-56
2022/08/20 10:48:43;;;;;;;1.25;0.60;;;23.80;99.90;;;;;;5013453;28;20183;-57
2022/08/20 10:51:08;;;;;;;1.55;0.90;;;23.50;99.90;;;;;;5013615;28;20176;-57
2022/08/20 10:53:34;;;;;;;2.88;1.23;;;23.60;99.90;;;;;;5013493;28;20202;-57
2022/08/20 10:56:00;;;;;;;2.60;0.82;;;23.80;99.90;;;;;;5013735;28;20177;-57
2022/08/20 10:58:27;;;;;;;1.80;0.88;;;23.90;98.90;;;;;;5013901;28;20196;-58
2022/08/20 11:00:52;;;;;;;1.33;0.88;;;24.10;99.90;;;;;;5013655;28;20187;-57
2022/08/20 11:03:19;;;;;;;1.08;1.00;;;24.10;99.90;;;;;;5013344;28;20180;-57
2022/08/20 11:05:45;;;;;;;2.05;0.80;;;24.20;99.90;;;;;;5013022;28;20208;-57
2022/08/20 11:08:11;;;;;;;2.25;1.10;;;24.60;99.90;;;;;;5012491;28;20183;-57
2022/08/20 11:10:37;;;;;;;1.67;0.73;;;24.50;99.30;;;;;;5012919;28;20181;-57
2022/08/20 11:13:05;;;;;;;1.67;0.60;;;24.60;99.90;;;;;;5013627;28;20546;-57
2022/08/20 11:15:32;;;;;;;1.75;0.80;;;24.80;99.90;;;;;;5013567;28;20215;-57
2022/08/20 11:17:58;;;;;;;1.35;0.80;;;24.90;99.90;;;;;;5013514;28;20200;-57
2022/08/20 11:20:25;;;;;;;0.70;0.70;;;24.90;99.70;;;;;;5013489;28;20207;-57
2022/08/20 11:22:51;;;;;;;0.90;0.90;;;25.10;99.40;;;;;;5012039;28;20230;-57
2022/08/20 11:25:17;;;;;;;1.70;0.70;;;25.20;99.40;;;;;;5013472;28;20302;-57
2022/08/20 11:27:48;;;;;;;0.60;0.60;;;25.10;98.10;;;;;;5013097;28;20176;-57
2022/08/20 11:30:21;;;;;;;0.80;0.40;;;25.30;98.30;;;;;;5013524;28;20173;-57
2022/08/20 11:32:47;;;;;;;1.95;0.60;;;25.20;97.00;;;;;;5013395;28;20260;-57
2022/08/20 11:35:13;;;;;;;0.60;0.60;;;25.30;98.40;;;;;;5013283;28;20271;-57
2022/08/20 11:37:39;;;;;;;0.52;0.52;;;25.60;98.40;;;;;;5013286;28;20181;-57
2022/08/20 11:40:07;;;;;;;1.20;0.70;;;25.70;97.20;;;;;;5013415;28;20184;-57
2022/08/20 11:42:33;;;;;;;0.45;0.45;;;25.90;96.60;;;;;;5013181;28;20515;-57
2022/08/20 11:44:59;;;;;;;1.38;0.50;;;25.80;94.70;;;;;;5013232;28;20258;-58
2022/08/20 11:47:28;;;;;;;0.40;0.40;;;25.70;95.50;;;;;;5013232;28;20533;-58
2022/08/20 11:50:04;;;;;;;0.77;0.47;;;25.80;95.70;;;;;;5012944;28;20169;-58
2022/08/20 11:52:30;;;;;;;1.02;0.68;;;25.80;95.80;;;;;;5012990;28;20172;-56
2022/08/20 11:54:57;;;;;;;0.95;0.65;;;25.70;96.80;;;;;;5013269;28;20530;-61
2022/08/20 11:57:28;;;;;;;0.60;0.32;;;25.80;94.90;;;;;;5011355;28;20181;-59
2022/08/20 11:59:56;;;;;;;0.70;0.50;;;25.80;94.30;;;;;;5014285;28;20176;-58
2022/08/20 12:02:21;;;;;;;0.73;0.47;;;25.70;95.20;;;;;;5016683;28;20265;-58
2022/08/20 12:04:47;;;;;;;1.17;0.60;;;25.50;95.60;;;;;;5016948;28;20295;-59
2022/08/20 12:07:16;;;;;;;0.43;0.40;;;25.50;96.10;;;;;;5016776;28;20645;-59
2022/08/20 12:09:44;;;;;;;0.73;0.65;;;25.50;96.40;;;;;;5016717;28;20256;-59
2022/08/20 12:12:10;;;;;;;1.83;0.60;;;25.10;96.30;;;;;;5016679;28;20231;-58
2022/08/20 12:14:35;;;;;;;0.57;0.57;;;24.80;96.80;;;;;;5016590;28;20184;-59
2022/08/20 12:17:18;;;;;;;0.75;0.50;;;24.50;98.30;;;;;;5016580;28;20267;-61
2022/08/20 12:19:44;;;;;;;0.88;0.70;;;24.50;99.00;;;;;;5016516;28;20500;-58
2022/08/20 12:22:10;;;;;;;0.85;0.70;;;24.50;97.70;;;;;;5016389;28;20311;-58
2022/08/20 12:24:37;;;;;;;0.70;0.70;;;24.50;97.70;;;;;;5016507;28;20661;-57
2022/08/20 12:27:14;;;;;;;1.10;1.00;;;24.40;97.50;;;;;;5016548;28;20176;-58
2022/08/20 12:29:41;;;;;;;1.08;0.82;;;24.20;96.40;;;;;;5016695;28;20223;-58
2022/08/20 12:32:07;;;;;;;1.15;0.88;;;24.10;97.50;;;;;;5016517;28;20251;-57
2022/08/20 12:34:38;;;;;;;1.40;0.88;;;24.00;97.60;;;;;;5016230;28;20622;-58
2022/08/20 12:37:16;;;;;;;1.70;0.77;;;24.30;95.50;;;;;;5016522;28;20223;-58
2022/08/20 12:39:45;;;;;;;0.88;0.73;;;24.80;96.70;;;;;;5016290;28;20173;-58
2022/08/20 12:42:11;;;;;;;1.50;0.90;;;25.20;97.30;;;;;;5016078;28;20169;-58
2022/08/20 12:44:38;;;;;;;1.80;1.10;;;25.30;96.40;;;;;;5016030;28;20594;-59
2022/08/20 12:47:26;;;;;;;0.85;0.85;;;25.40;95.20;;;;;;5016065;28;20183;-58
2022/08/20 12:49:55;;;;;;;1.67;0.80;;;25.40;96.90;;;;;;5016079;28;20234;-59
2022/08/20 12:52:22;;;;;;;2.15;0.77;;;25.70;95.40;;;;;;5015955;28;20272;-58
2022/08/20 12:54:47;;;;;;;1.40;0.85;;;25.90;94.70;;;;;;5014831;28;20285;-58
2022/08/20 12:57:15;;;;;;;0.98;0.88;;;26.00;95.60;;;;;;5016026;28;20263;-58
2022/08/20 12:59:41;;;;;;;1.30;0.80;;;25.70;94.90;;;;;;5015753;28;20280;-57